Brockley, United Kingdom
Current Conditions -  °F | °C
As of 2:20 PM on Monday 20 Oct 2014 (Local Time) from EGLC Reporting Station
Scattered Clouds Scattered Clouds  
Wind Chill: 63°   Ceiling: Unl
Heat Index: 63°   Visibility: 6mi
Dew Point: 48°   Wind: 14mph
Humidity: 59%   Direction: 250°WSW
Pressure: 29.97"   Gusts: NA
Location:  51.45°N, 0.03°W
Report Text: EGLC 201320Z 25012KT 9999 SCT032 17/09 Q1015
Loading
Personal Weather Stations






























Interactive Weather Map New forecast layout! Learn more

10-Day Weather Forecast

Advertisements
Track Severe Weather on mobile